createdAt,value
2023-05-23T00:01:45.508Z,100.00
2023-05-23T00:04:34.105Z,100.00
2023-05-23T00:07:22.851Z,100.00
2023-05-23T00:10:12.984Z,100.00
2023-05-23T00:13:01.512Z,100.00
2023-05-23T00:15:50.042Z,100.00
2023-05-23T00:18:40.250Z,100.00
2023-05-23T00:21:29.483Z,100.00
2023-05-23T00:24:18.619Z,100.00
2023-05-23T00:27:08.689Z,100.00
2023-05-23T00:29:57.201Z,100.00
2023-05-23T00:32:45.747Z,100.00
2023-05-23T00:35:34.241Z,100.00
2023-05-23T00:38:22.873Z,100.00
2023-05-23T00:41:11.421Z,100.00
2023-05-23T00:44:01.697Z,100.00
2023-05-23T00:46:53.535Z,100.00
2023-05-23T00:49:42.107Z,100.00
2023-05-23T00:52:30.621Z,100.00
2023-05-23T00:55:19.188Z,100.00
2023-05-23T00:58:08.081Z,100.00
2023-05-23T01:00:59.851Z,100.00
2023-05-23T01:03:48.601Z,100.00
2023-05-23T01:06:37.676Z,100.00
2023-05-23T01:09:27.238Z,100.00
2023-05-23T01:12:28.428Z,100.00
2023-05-23T01:15:18.974Z,100.00
2023-05-23T01:18:12.225Z,100.00
2023-05-23T01:21:03.747Z,100.00
2023-05-23T01:24:23.301Z,100.00
2023-05-23T01:27:23.607Z,100.00
2023-05-23T01:30:14.667Z,100.00
2023-05-23T01:33:03.772Z,100.00
2023-05-23T01:35:52.384Z,100.00
2023-05-23T01:38:40.879Z,100.00
2023-05-23T01:41:29.409Z,100.00
2023-05-23T01:44:19.765Z,100.00
2023-05-23T01:47:11.841Z,100.00
2023-05-23T01:50:00.883Z,100.00
2023-05-23T01:52:49.750Z,100.00
2023-05-23T01:55:38.334Z,100.00
2023-05-23T01:58:26.962Z,100.00
2023-05-23T02:01:15.895Z,100.00
2023-05-23T02:04:06.803Z,100.00
2023-05-23T02:06:55.340Z,100.00
2023-05-23T02:09:43.861Z,100.00
2023-05-23T02:12:32.369Z,100.00
2023-05-23T02:15:20.978Z,100.00
2023-05-23T02:18:09.507Z,100.00
2023-05-23T02:20:59.444Z,100.00
2023-05-23T02:23:47.962Z,100.00
2023-05-23T02:26:37.031Z,100.00
2023-05-23T02:29:25.540Z,100.00
2023-05-23T02:32:14.098Z,100.00
2023-05-23T02:35:02.912Z,100.00
2023-05-23T02:37:52.729Z,100.00
2023-05-23T02:40:41.255Z,100.00
2023-05-23T02:43:29.786Z,100.00
2023-05-23T02:46:18.331Z,100.00
2023-05-23T02:49:06.891Z,100.00
2023-05-23T02:51:55.426Z,100.00
2023-05-23T02:54:45.721Z,100.00
2023-05-23T02:57:34.270Z,100.00
2023-05-23T03:00:23.026Z,100.00
2023-05-23T03:03:11.888Z,100.00
2023-05-23T03:06:00.776Z,100.00
2023-05-23T03:08:49.390Z,100.00
2023-05-23T03:11:39.244Z,100.00
2023-05-23T03:14:27.841Z,100.00
2023-05-23T03:17:16.589Z,100.00
2023-05-23T03:20:07.046Z,100.00
2023-05-23T03:22:55.501Z,100.00
2023-05-23T03:25:44.267Z,100.00
2023-05-23T03:28:34.300Z,100.00
2023-05-23T03:31:22.833Z,100.00
2023-05-23T03:34:12.976Z,100.00
2023-05-23T03:37:01.433Z,100.00
2023-05-23T03:39:49.882Z,100.00
2023-05-23T03:42:39.759Z,100.00
2023-05-23T03:45:29.581Z,100.00
2023-05-23T03:48:18.203Z,100.00
2023-05-23T03:51:06.741Z,100.00
2023-05-23T03:53:55.240Z,100.00
2023-05-23T03:56:43.737Z,100.00
2023-05-23T03:59:32.299Z,100.00
2023-05-23T04:02:22.393Z,100.00
2023-05-23T04:05:11.221Z,100.00
2023-05-23T04:08:01.219Z,100.00
2023-05-23T04:10:49.786Z,100.00
2023-05-23T04:13:38.612Z,100.00
2023-05-23T04:16:27.237Z,100.00
2023-05-23T04:19:17.636Z,100.00
2023-05-23T04:22:06.800Z,100.00
2023-05-23T04:24:55.699Z,100.00
2023-05-23T04:27:44.173Z,100.00
2023-05-23T04:30:33.347Z,100.00
2023-05-23T04:33:21.851Z,100.00
2023-05-23T04:36:11.833Z,100.00
2023-05-23T04:39:01.547Z,100.00
2023-05-23T04:41:51.346Z,100.00
2023-05-23T04:44:39.816Z,100.00
2023-05-23T04:47:28.884Z,100.00
2023-05-23T04:50:18.523Z,100.00
2023-05-23T04:53:08.358Z,100.00
2023-05-23T04:55:57.589Z,100.00
2023-05-23T04:58:46.571Z,100.00
2023-05-23T05:01:35.223Z,100.00
2023-05-23T05:04:23.947Z,100.00
2023-05-23T05:07:12.723Z,100.00
2023-05-23T05:10:02.652Z,100.00
2023-05-23T05:12:51.181Z,100.00
2023-05-23T05:15:40.026Z,100.00
2023-05-23T05:18:28.823Z,97.95
2023-05-23T05:21:17.322Z,98.83
2023-05-23T05:24:05.889Z,99.85
2023-05-23T05:26:55.867Z,100.00
2023-05-23T05:29:44.608Z,98.08
2023-05-23T05:32:33.713Z,97.02
2023-05-23T05:35:22.301Z,95.58
2023-05-23T05:38:11.042Z,93.70
2023-05-23T05:40:59.609Z,92.83
2023-05-23T05:43:49.501Z,93.41
2023-05-23T05:46:38.149Z,88.59
2023-05-23T05:49:26.658Z,90.30
2023-05-23T05:52:15.312Z,90.21
2023-05-23T05:55:03.947Z,89.46
2023-05-23T05:57:52.523Z,88.18
2023-05-23T06:00:43.476Z,89.49
2023-05-23T06:03:32.221Z,89.49
2023-05-23T06:06:20.868Z,87.83
2023-05-23T06:09:09.365Z,88.68
2023-05-23T06:11:58.126Z,89.22
2023-05-23T06:14:46.901Z,87.76
2023-05-23T06:17:37.201Z,87.89
2023-05-23T06:20:25.809Z,86.69
2023-05-23T06:23:14.598Z,85.68
2023-05-23T06:26:03.132Z,85.76
2023-05-23T06:28:51.627Z,85.73
2023-05-23T06:31:40.152Z,85.75
2023-05-23T06:34:30.174Z,87.46
2023-05-23T06:37:18.938Z,85.53
2023-05-23T06:40:08.193Z,84.15
2023-05-23T06:42:56.813Z,84.70
2023-05-23T06:45:47.063Z,84.83
2023-05-23T06:48:35.587Z,83.68
2023-05-23T06:51:25.594Z,83.28
2023-05-23T06:54:14.200Z,82.45
2023-05-23T06:57:02.755Z,82.66
2023-05-23T06:59:51.264Z,82.33
2023-05-23T07:02:39.802Z,82.22
2023-05-23T07:05:29.291Z,81.42
2023-05-23T07:08:19.146Z,81.79
2023-05-23T07:11:07.887Z,82.44
2023-05-23T07:13:56.748Z,81.83
2023-05-23T07:16:45.353Z,81.78
2023-05-23T07:19:34.000Z,80.96
2023-05-23T07:22:22.582Z,81.33
2023-05-23T07:25:12.605Z,80.44
2023-05-23T07:28:01.125Z,81.91
2023-05-23T07:30:49.776Z,82.50
2023-05-23T07:33:38.272Z,82.44
2023-05-23T07:36:27.550Z,81.77
2023-05-23T07:39:21.977Z,80.25
2023-05-23T07:42:11.919Z,80.13
2023-05-23T07:45:01.027Z,80.16
2023-05-23T07:47:50.475Z,80.61
2023-05-23T07:50:39.747Z,79.50
2023-05-23T07:53:28.680Z,78.06
2023-05-23T07:56:17.276Z,79.52
2023-05-23T07:59:08.546Z,79.43
2023-05-23T08:01:57.116Z,78.59
2023-05-23T08:04:46.108Z,77.67
2023-05-23T08:07:34.706Z,76.11
2023-05-23T08:10:23.306Z,76.33
2023-05-23T08:13:11.871Z,76.10
2023-05-23T08:16:01.790Z,76.60
2023-05-23T08:18:50.377Z,76.09
2023-05-23T08:21:38.921Z,76.02
2023-05-23T08:24:27.390Z,77.11
2023-05-23T08:27:15.873Z,75.93
2023-05-23T08:30:05.150Z,73.72
2023-05-23T08:32:55.994Z,75.10
2023-05-23T08:35:44.861Z,75.52
2023-05-23T08:38:51.766Z,75.18
2023-05-23T08:41:40.554Z,74.64
2023-05-23T08:44:29.078Z,74.36
2023-05-23T08:47:18.283Z,76.14
2023-05-23T08:50:10.135Z,74.45
2023-05-23T08:53:01.118Z,75.22
2023-05-23T08:55:51.171Z,72.87
2023-05-23T08:58:41.941Z,73.69
2023-05-23T09:01:31.189Z,74.29
2023-05-23T09:04:19.749Z,72.08
2023-05-23T09:07:11.276Z,71.59
2023-05-23T09:09:59.822Z,71.70
2023-05-23T09:12:48.361Z,72.68
2023-05-23T09:15:37.677Z,73.07
2023-05-23T09:18:26.783Z,73.78
2023-05-23T09:21:15.450Z,72.70
2023-05-23T09:24:06.941Z,73.26
2023-05-23T09:26:55.509Z,71.31
2023-05-23T09:29:44.034Z,70.94
2023-05-23T09:32:32.573Z,70.91
2023-05-23T09:35:24.232Z,69.20
2023-05-23T09:38:12.873Z,68.74
2023-05-23T09:41:02.788Z,68.68
2023-05-23T09:43:52.574Z,70.17
2023-05-23T09:46:41.240Z,68.67
2023-05-23T09:49:30.082Z,68.51
2023-05-23T09:52:20.132Z,67.72
2023-05-23T09:55:09.404Z,67.39
2023-05-23T09:58:00.838Z,66.95
2023-05-23T10:00:52.913Z,67.74
2023-05-23T10:03:47.121Z,67.51
2023-05-23T10:06:42.831Z,67.65
2023-05-23T10:09:35.005Z,68.47
2023-05-23T10:12:44.443Z,67.12
2023-05-23T10:15:39.845Z,66.83
2023-05-23T10:18:31.078Z,65.05
2023-05-23T10:21:21.947Z,65.07
2023-05-23T10:24:10.501Z,64.35
2023-05-23T10:26:59.420Z,64.23
2023-05-23T10:29:48.025Z,64.26
2023-05-23T10:32:40.053Z,62.68
2023-05-23T10:35:46.246Z,62.20
2023-05-23T10:38:38.018Z,63.31
2023-05-23T10:41:30.137Z,64.93
2023-05-23T10:44:24.244Z,64.87
2023-05-23T10:47:13.115Z,64.98
2023-05-23T10:50:03.251Z,66.79
2023-05-23T10:52:54.580Z,65.08
2023-05-23T10:55:43.157Z,64.36
2023-05-23T10:58:32.140Z,64.10
2023-05-23T11:01:20.811Z,63.77
2023-05-23T11:04:09.547Z,63.64
2023-05-23T11:06:59.480Z,63.75
2023-05-23T11:10:10.964Z,65.31
2023-05-23T11:13:07.608Z,65.22
2023-05-23T11:15:56.126Z,65.89
2023-05-23T11:18:45.363Z,64.21
2023-05-23T11:21:34.011Z,63.74
2023-05-23T11:24:24.570Z,64.59
2023-05-23T11:27:13.836Z,61.51
2023-05-23T11:30:04.985Z,60.63
2023-05-23T11:32:55.802Z,61.12
2023-05-23T11:35:45.756Z,60.31
2023-05-23T11:38:34.724Z,60.64
2023-05-23T11:41:24.658Z,60.54
2023-05-23T11:44:14.116Z,60.35
2023-05-23T11:47:04.082Z,60.64
2023-05-23T11:49:52.654Z,59.23
2023-05-23T11:52:41.516Z,60.17
2023-05-23T11:55:30.223Z,61.59
2023-05-23T11:58:20.202Z,62.25
2023-05-23T12:01:10.306Z,59.27
2023-05-23T12:03:58.905Z,60.09
2023-05-23T12:06:48.057Z,61.79
2023-05-23T12:09:44.073Z,63.82
2023-05-23T12:12:33.335Z,63.75
2023-05-23T12:15:26.945Z,63.35
2023-05-23T12:18:16.012Z,63.83
2023-05-23T12:21:06.062Z,64.62
2023-05-23T12:23:55.049Z,64.30
2023-05-23T12:26:51.228Z,64.01
2023-05-23T12:29:39.846Z,63.86
2023-05-23T12:32:29.936Z,63.38
2023-05-23T12:35:18.782Z,64.81
2023-05-23T12:38:07.962Z,64.42
2023-05-23T12:41:09.368Z,63.94
2023-05-23T12:43:58.300Z,62.83
2023-05-23T12:46:48.188Z,63.80
2023-05-23T12:49:39.386Z,63.48
2023-05-23T12:52:27.895Z,62.69
2023-05-23T12:55:16.866Z,63.21
2023-05-23T12:58:05.493Z,63.21
2023-05-23T13:00:54.353Z,63.07
2023-05-23T13:03:42.977Z,62.88
2023-05-23T13:06:33.406Z,63.07
2023-05-23T13:09:22.817Z,63.79
2023-05-23T13:12:12.368Z,60.15
2023-05-23T13:15:01.230Z,59.76
2023-05-23T13:17:50.539Z,59.50
2023-05-23T13:20:39.345Z,61.79
2023-05-23T13:23:29.553Z,60.41
2023-05-23T13:26:18.317Z,60.23
2023-05-23T13:29:07.193Z,61.05
2023-05-23T13:31:55.852Z,60.40
2023-05-23T13:34:44.505Z,61.75
2023-05-23T13:37:33.368Z,61.20
2023-05-23T13:40:23.367Z,59.55
2023-05-23T13:43:12.147Z,58.47
2023-05-23T13:46:02.049Z,57.89
2023-05-23T13:48:50.786Z,57.24
2023-05-23T13:51:39.973Z,56.99
2023-05-23T13:54:28.567Z,57.04
2023-05-23T13:57:18.560Z,57.77
2023-05-23T14:00:09.095Z,60.28
2023-05-23T14:02:57.741Z,59.18
2023-05-23T14:05:46.440Z,60.57
2023-05-23T14:08:35.262Z,60.66
2023-05-23T14:11:24.035Z,62.33
2023-05-23T14:14:13.941Z,62.10
2023-05-23T14:17:03.281Z,62.95
2023-05-23T14:19:52.277Z,63.30
2023-05-23T14:22:40.862Z,63.62
2023-05-23T14:25:29.418Z,61.44
2023-05-23T14:28:18.181Z,62.12
2023-05-23T14:31:08.579Z,61.30
2023-05-23T14:33:57.120Z,60.56
2023-05-23T14:36:45.984Z,59.83
2023-05-23T14:39:34.731Z,59.31
2023-05-23T14:42:23.266Z,60.70
2023-05-23T14:45:12.645Z,61.58
2023-05-23T14:48:03.047Z,62.03
2023-05-23T14:50:51.946Z,62.30
2023-05-23T14:53:40.637Z,62.71
2023-05-23T14:56:29.479Z,62.20
2023-05-23T14:59:18.038Z,62.09
2023-05-23T15:02:07.239Z,61.24
2023-05-23T15:04:57.318Z,60.62
2023-05-23T15:07:46.344Z,60.03
2023-05-23T15:10:34.811Z,59.96
2023-05-23T15:13:23.312Z,59.84
2023-05-23T15:16:11.832Z,59.64
2023-05-23T15:19:00.552Z,59.93
2023-05-23T15:21:51.743Z,59.63
2023-05-23T15:24:41.008Z,60.40
2023-05-23T15:27:29.688Z,59.43
2023-05-23T15:30:18.572Z,60.96
2023-05-23T15:33:07.989Z,61.00
2023-05-23T15:35:58.860Z,59.10
2023-05-23T15:38:48.729Z,59.78
2023-05-23T15:41:37.527Z,59.82
2023-05-23T15:44:26.319Z,59.80
2023-05-23T15:47:14.967Z,60.09
2023-05-23T15:50:03.586Z,59.28
2023-05-23T15:52:52.161Z,59.63
2023-05-23T15:55:42.929Z,59.72
2023-05-23T15:58:32.375Z,58.76
2023-05-23T16:01:22.794Z,59.08
2023-05-23T16:04:11.493Z,60.21
2023-05-23T16:07:00.326Z,59.81
2023-05-23T16:09:49.102Z,60.17
2023-05-23T16:12:39.050Z,62.00
2023-05-23T16:15:27.723Z,61.61
2023-05-23T16:18:16.298Z,61.91
2023-05-23T16:21:05.660Z,61.60
2023-05-23T16:23:54.276Z,61.29
2023-05-23T16:26:42.920Z,62.38
2023-05-23T16:29:32.892Z,62.09
2023-05-23T16:32:21.483Z,62.42
2023-05-23T16:35:11.315Z,63.71
2023-05-23T16:38:00.108Z,63.33
2023-05-23T16:40:48.909Z,62.99
2023-05-23T16:43:37.442Z,63.16
2023-05-23T16:46:27.533Z,62.68
2023-05-23T16:49:16.087Z,63.59
2023-05-23T16:52:04.824Z,62.98
2023-05-23T16:54:55.743Z,62.46
2023-05-23T16:57:44.417Z,62.71
2023-05-23T17:00:33.259Z,63.31
2023-05-23T17:03:23.311Z,63.81
2023-05-23T17:06:12.345Z,63.62
2023-05-23T17:09:00.961Z,64.23
2023-05-23T17:11:49.672Z,64.77
2023-05-23T17:14:38.522Z,64.30
2023-05-23T17:17:27.070Z,64.26
2023-05-23T17:20:16.998Z,65.35
2023-05-23T17:23:06.032Z,65.72
2023-05-23T17:25:55.297Z,65.75
2023-05-23T17:28:43.913Z,65.73
2023-05-23T17:31:32.813Z,66.84
2023-05-23T17:34:21.817Z,66.97
2023-05-23T17:37:12.095Z,67.54
2023-05-23T17:40:00.892Z,67.56
2023-05-23T17:42:49.830Z,68.39
2023-05-23T17:45:38.408Z,68.09
2023-05-23T17:48:42.605Z,68.10
2023-05-23T17:51:35.041Z,68.33
2023-05-23T17:54:24.903Z,68.24
2023-05-23T17:57:13.893Z,68.37
2023-05-23T18:00:02.479Z,68.30
2023-05-23T18:02:51.958Z,68.35
2023-05-23T18:05:40.598Z,67.78
2023-05-23T18:08:29.188Z,68.40
2023-05-23T18:11:19.636Z,67.98
2023-05-23T18:14:08.238Z,68.28
2023-05-23T18:16:57.105Z,67.10
2023-05-23T18:19:46.405Z,67.69
2023-05-23T18:22:34.940Z,67.51
2023-05-23T18:25:28.083Z,67.57
2023-05-23T18:28:18.040Z,67.88
2023-05-23T18:31:06.594Z,68.46
2023-05-23T18:33:55.259Z,68.38
2023-05-23T18:36:43.945Z,68.01
2023-05-23T18:39:32.509Z,68.27
2023-05-23T18:42:21.070Z,68.93
2023-05-23T18:45:12.412Z,69.28
2023-05-23T18:48:00.970Z,69.08
2023-05-23T18:50:52.225Z,69.34
2023-05-23T18:53:42.431Z,69.92
2023-05-23T18:56:31.530Z,69.85
2023-05-23T18:59:20.033Z,69.72
2023-05-23T19:02:10.104Z,70.44
2023-05-23T19:04:58.757Z,70.83
2023-05-23T19:07:47.569Z,71.22
2023-05-23T19:10:36.166Z,71.91
2023-05-23T19:13:24.674Z,71.84
2023-05-23T19:16:13.614Z,71.94
2023-05-23T19:19:03.565Z,72.42
2023-05-23T19:21:52.151Z,72.23
2023-05-23T19:24:40.741Z,72.26
2023-05-23T19:27:29.273Z,71.93
2023-05-23T19:30:17.853Z,72.36
2023-05-23T19:33:07.203Z,72.08
2023-05-23T19:35:57.383Z,72.60
2023-05-23T19:38:45.984Z,72.62
2023-05-23T19:41:34.544Z,71.63
2023-05-23T19:44:23.139Z,71.41
2023-05-23T19:47:12.183Z,71.08
2023-05-23T19:50:00.868Z,70.94
2023-05-23T19:52:51.325Z,70.81
2023-05-23T19:55:39.918Z,70.69
2023-05-23T19:58:28.774Z,70.77
2023-05-23T20:01:17.335Z,70.33
2023-05-23T20:04:07.228Z,70.22
2023-05-23T20:06:56.060Z,70.13
2023-05-23T20:09:46.049Z,70.02
2023-05-23T20:12:34.731Z,70.28
2023-05-23T20:15:35.284Z,70.22
2023-05-23T20:18:28.160Z,70.18
2023-05-23T20:21:16.730Z,70.09
2023-05-23T20:24:05.641Z,69.99
2023-05-23T20:26:55.555Z,70.32
2023-05-23T20:29:44.314Z,70.36
2023-05-23T20:32:32.911Z,70.54
2023-05-23T20:35:22.570Z,70.43
2023-05-23T20:38:11.415Z,70.62
2023-05-23T20:41:06.504Z,70.29
2023-05-23T20:43:56.501Z,69.89
2023-05-23T20:46:45.121Z,70.08
2023-05-23T20:49:34.766Z,70.43
2023-05-23T20:52:24.534Z,70.08
2023-05-23T20:55:14.109Z,69.99
2023-05-23T20:58:02.677Z,70.24
2023-05-23T21:00:52.929Z,70.01
2023-05-23T21:03:42.147Z,69.70
2023-05-23T21:06:30.688Z,69.09
2023-05-23T21:09:19.552Z,69.51
2023-05-23T21:12:08.522Z,69.18
2023-05-23T21:14:57.991Z,68.65
2023-05-23T21:17:47.912Z,69.31
2023-05-23T21:20:36.470Z,69.01
2023-05-23T21:23:25.034Z,69.04
2023-05-23T21:26:13.565Z,68.76
2023-05-23T21:29:02.051Z,68.64
2023-05-23T21:31:50.706Z,68.10
2023-05-23T21:34:40.748Z,68.10
2023-05-23T21:37:29.335Z,68.67
2023-05-23T21:40:18.133Z,67.37
2023-05-23T21:43:06.688Z,67.64
2023-05-23T21:45:55.258Z,68.46
2023-05-23T21:48:43.786Z,68.68
2023-05-23T21:51:34.133Z,68.28
2023-05-23T21:54:22.676Z,68.33
2023-05-23T21:57:11.138Z,68.46
2023-05-23T21:59:59.966Z,68.52
2023-05-23T22:02:48.606Z,67.33
2023-05-23T22:05:37.293Z,67.81
2023-05-23T22:08:31.744Z,66.55
2023-05-23T22:11:20.475Z,65.34
2023-05-23T22:14:09.096Z,65.60
2023-05-23T22:16:59.081Z,65.63
2023-05-23T22:19:48.500Z,65.63
2023-05-23T22:22:38.491Z,66.14
2023-05-23T22:25:32.421Z,65.44
2023-05-23T22:28:21.011Z,65.41
2023-05-23T22:31:12.105Z,66.30
2023-05-23T22:34:01.599Z,66.76
2023-05-23T22:36:50.592Z,67.00
2023-05-23T22:39:39.207Z,67.35
2023-05-23T22:42:29.220Z,66.64
2023-05-23T22:45:17.724Z,66.84
2023-05-23T22:48:06.460Z,66.90
2023-05-23T22:50:55.133Z,66.72
2023-05-23T22:53:43.850Z,67.03
2023-05-23T22:56:32.902Z,68.18
2023-05-23T22:59:22.786Z,68.89
2023-05-23T23:02:11.405Z,69.84
2023-05-23T23:05:01.110Z,69.65
2023-05-23T23:07:49.712Z,69.26
2023-05-23T23:10:38.267Z,69.64
2023-05-23T23:13:26.822Z,69.00
2023-05-23T23:16:19.258Z,69.20
2023-05-23T23:19:07.832Z,65.38
2023-05-23T23:21:56.705Z,63.32
2023-05-23T23:24:45.436Z,64.09
2023-05-23T23:27:33.952Z,63.10
2023-05-23T23:30:22.637Z,63.24
2023-05-23T23:33:12.580Z,63.35
2023-05-23T23:36:01.142Z,63.65
2023-05-23T23:38:49.717Z,64.09
2023-05-23T23:41:38.196Z,63.84
2023-05-23T23:44:26.669Z,63.97
2023-05-23T23:47:15.296Z,63.07
2023-05-23T23:50:05.709Z,63.88
2023-05-23T23:52:54.224Z,63.61
2023-05-23T23:55:42.750Z,63.77
2023-05-23T23:58:31.479Z,64.16
